Arcola, Missouri
Current Conditions -  °F | °C
As of 12:52 AM on Monday 22 Dec 2014 (Local Time) from KSGF Reporting Station
Overcast Overcast  
Wind Chill: 34°   Ceiling: 5500
Heat Index: 42°   Visibility: 10mi
Dew Point: 36°   Wind: 17mph
Humidity: 79%   Direction: 130°SE
Pressure: 29.75"   Gusts: NA
Location:  37.55°N, 93.88°W
Report Text: KSGF 220652Z 13015KT 10SM SCT026 OVC055 06/02 A2975 RMK AO2 SLP078 T00560022
Loading
Personal Weather Stations






























Interactive Weather Map New forecast layout! Learn more

10-Day Weather Forecast

Advertisements
Track Severe Weather on mobile